Time;durP1;ratioP1;P1;durP2;ratioP2;P2;SDS_P1;SDS_P2;PMS_P1;PMS_P2;Temp;Humidity;BMP_temperature;BMP_pressure;BME280_temperature;BME280_humidity;BME280_pressure;Samples;Min_cycle;Max_cycle;Signal;HPM_P1;HPM_P2
2022/10/25 00:00:41;;;;;;;23.90;11.50;;;;;;;13.42;70.76;98845.77;103094;1304;111076;-78
2022/10/25 00:03:29;;;;;;;23.20;11.20;;;;;;;13.42;70.74;98851.48;103139;1297;98026;-77
2022/10/25 00:05:56;;;;;;;22.60;10.70;;;;;;;13.43;70.78;98842.84;103105;1297;107154;-78
2022/10/25 00:08:24;;;;;;;24.90;10.80;;;;;;;13.44;70.78;98837.39;103138;1297;97803;-77
2022/10/25 00:10:54;;;;;;;24.90;11.90;;;;;;;13.44;70.77;98835.27;103184;1304;97919;-77
2022/10/25 00:13:22;;;;;;;25.20;11.60;;;;;;;13.43;70.78;98832.31;103051;1297;111081;-78
2022/10/25 00:15:49;;;;;;;24.90;11.20;;;;;;;13.43;70.80;98825.60;103107;1304;97979;-77
2022/10/25 00:18:17;;;;;;;23.00;11.30;;;;;;;13.43;70.72;98821.86;103119;1304;107319;-78
2022/10/25 00:20:47;;;;;;;23.90;11.60;;;;;;;13.43;70.74;98829.88;103124;1296;95860;-77
2022/10/25 00:23:15;;;;;;;24.60;11.80;;;;;;;13.42;70.80;98832.59;103131;1304;98456;-77
2022/10/25 00:25:43;;;;;;;23.40;11.20;;;;;;;13.41;70.94;98828.20;103087;1305;109236;-77
2022/10/25 00:28:13;;;;;;;23.40;11.70;;;;;;;13.40;70.87;98825.57;103063;1303;97960;-76
2022/10/25 00:30:40;;;;;;;26.80;11.80;;;;;;;13.41;71.03;98820.16;103065;1302;107472;-76
2022/10/25 00:33:08;;;;;;;22.90;11.00;;;;;;;13.42;71.01;98820.34;103095;1296;97903;-77
2022/10/25 00:35:36;;;;;;;25.20;11.20;;;;;;;13.42;71.01;98830.09;103120;1300;97899;-76
2022/10/25 00:38:03;;;;;;;23.70;11.60;;;;;;;13.43;71.00;98838.59;103110;1298;110449;-76
2022/10/25 00:40:31;;;;;;;23.10;11.10;;;;;;;13.43;71.01;98839.41;103111;1304;97883;-77
2022/10/25 00:42:59;;;;;;;21.10;11.30;;;;;;;13.44;70.96;98839.15;103094;1297;107466;-77
2022/10/25 00:45:28;;;;;;;22.20;11.10;;;;;;;13.45;70.99;98834.28;102975;1299;97979;-76
2022/10/25 00:48:02;;;;;;;22.30;10.90;;;;;;;13.45;71.02;98838.33;103115;1298;97936;-76
2022/10/25 00:50:51;;;;;;;22.30;10.50;;;;;;;13.46;71.08;98842.53;103110;1297;111032;-77
2022/10/25 00:53:24;;;;;;;29.40;11.80;;;;;;;13.47;71.10;98834.48;103079;1310;98101;-77
2022/10/25 00:56:05;;;;;;;21.90;11.40;;;;;;;13.47;71.09;98827.12;103160;1303;107528;-76
2022/10/25 00:58:37;;;;;;;23.80;10.30;;;;;;;13.49;71.14;98827.18;103102;1300;97981;-77
2022/10/25 01:01:07;;;;;;;23.90;11.50;;;;;;;13.49;71.06;98827.85;103151;1297;98517;-77
2022/10/25 01:03:39;;;;;;;24.70;11.80;;;;;;;13.49;71.12;98819.98;103181;1301;111148;-76
2022/10/25 01:06:17;;;;;;;24.00;12.10;;;;;;;13.50;71.21;98818.84;103180;1296;97861;-78
2022/10/25 01:08:50;;;;;;;25.90;13.00;;;;;;;13.51;71.20;98825.86;103143;1299;109536;-76
2022/10/25 01:11:20;;;;;;;23.90;11.90;;;;;;;13.52;71.23;98825.30;103189;1304;98104;-76
2022/10/25 01:13:50;;;;;;;26.50;12.10;;;;;;;13.53;71.24;98827.16;103188;1297;97877;-77
2022/10/25 01:16:32;;;;;;;24.80;12.50;;;;;;;13.54;71.25;98824.39;103184;1297;111185;-76
2022/10/25 01:19:35;;;;;;;24.50;12.10;;;;;;;13.55;71.27;98826.95;103104;1300;97899;-74
2022/10/25 01:22:15;;;;;;;27.40;12.40;;;;;;;13.57;71.29;98831.11;103161;1297;107539;-75
2022/10/25 01:25:21;;;;;;;28.30;12.50;;;;;;;13.59;71.32;98836.10;103138;1304;97949;-74
2022/10/25 01:28:03;;;;;;;25.00;12.40;;;;;;;13.60;71.33;98831.94;103112;1290;98021;-75
2022/10/25 01:31:10;;;;;;;29.80;13.10;;;;;;;13.62;71.46;98830.14;103112;1300;110834;-75
2022/10/25 01:34:08;;;;;;;30.10;14.40;;;;;;;13.62;71.40;98824.23;103129;1297;97923;-77
2022/10/25 01:37:01;;;;;;;29.60;13.50;;;;;;;13.63;71.47;98822.59;103134;1304;107224;-76
2022/10/25 01:40:04;;;;;;;28.10;13.20;;;;;;;13.62;71.52;98823.48;103076;1306;97997;-77
2022/10/25 01:43:20;;;;;;;26.60;13.60;;;;;;;13.62;71.50;98828.86;103138;1297;98372;-76
2022/10/25 01:46:17;;;;;;;26.20;12.90;;;;;;;13.61;71.53;98828.96;102999;1300;110779;-76
2022/10/25 01:48:49;;;;;;;30.60;14.10;;;;;;;13.60;71.50;98827.64;103090;1300;96345;-77
2022/10/25 01:51:17;;;;;;;27.20;13.50;;;;;;;13.59;71.54;98831.63;103132;1295;107326;-76
2022/10/25 01:53:48;;;;;;;26.90;13.70;;;;;;;13.58;71.60;98826.92;103061;1305;98006;-79
2022/10/25 01:56:38;;;;;;;29.80;14.30;;;;;;;13.57;71.62;98827.38;103107;1304;97838;-77
2022/10/25 01:59:11;;;;;;;30.20;14.10;;;;;;;13.55;71.71;98828.38;103128;1300;111094;-76
2022/10/25 02:01:58;;;;;;;26.20;13.70;;;;;;;13.54;71.68;98827.91;103091;1297;95776;-75
2022/10/25 02:04:35;;;;;;;30.30;15.60;;;;;;;13.53;71.66;98825.14;103072;1305;107221;-75
2022/10/25 02:07:42;;;;;;;27.70;14.40;;;;;;;13.51;71.76;98830.34;103058;1306;98000;-76
2022/10/25 02:10:14;;;;;;;28.10;14.20;;;;;;;13.49;71.93;98830.36;103125;1305;98000;-75
2022/10/25 02:13:22;;;;;;;28.40;13.90;;;;;;;13.48;71.87;98827.73;103083;1304;111133;-75
2022/10/25 02:16:10;;;;;;;30.30;13.90;;;;;;;13.47;72.10;98829.46;103048;1304;99639;-77
2022/10/25 02:18:44;;;;;;;29.00;15.00;;;;;;;13.46;72.02;98828.52;103107;1303;106481;-77
2022/10/25 02:21:18;;;;;;;32.70;14.90;;;;;;;13.45;71.85;98826.48;103106;1296;97868;-76
2022/10/25 02:23:49;;;;;;;28.60;15.20;;;;;;;13.42;71.99;98827.92;103104;1304;96491;-76
2022/10/25 02:26:19;;;;;;;29.20;16.10;;;;;;;13.40;72.01;98830.23;103178;1304;111086;-76
2022/10/25 02:28:49;;;;;;;28.70;14.70;;;;;;;13.39;72.06;98830.98;103166;1297;97956;-77
2022/10/25 02:31:22;;;;;;;29.10;14.80;;;;;;;13.39;72.09;98825.69;103131;1296;107786;-76
2022/10/25 02:33:49;;;;;;;28.30;14.30;;;;;;;13.39;72.24;98827.27;103131;1297;96932;-76
2022/10/25 02:36:23;;;;;;;29.60;15.20;;;;;;;13.39;72.22;98830.70;103105;1304;97897;-76
2022/10/25 02:38:53;;;;;;;29.50;15.40;;;;;;;13.38;72.24;98831.65;103150;1301;111239;-78
2022/10/25 02:41:22;;;;;;;26.80;14.50;;;;;;;13.36;72.25;98828.91;103156;1296;98091;-76
2022/10/25 02:43:50;;;;;;;29.10;14.70;;;;;;;13.36;72.35;98825.94;103037;1288;107498;-75
2022/10/25 02:46:21;;;;;;;30.70;15.50;;;;;;;13.36;72.28;98826.30;103099;1298;97898;-76
2022/10/25 02:48:51;;;;;;;28.90;14.30;;;;;;;13.35;72.32;98824.98;103120;1304;97892;-77
2022/10/25 02:51:19;;;;;;;28.10;14.40;;;;;;;13.34;72.45;98823.77;103095;1296;109855;-79
2022/10/25 02:53:46;;;;;;;29.90;15.70;;;;;;;13.34;72.50;98823.93;103075;1291;97902;-81
2022/10/25 02:56:20;;;;;;;27.80;14.60;;;;;;;13.35;72.59;98824.77;102992;1301;107217;-76
2022/10/25 02:58:54;;;;;;;29.80;14.90;;;;;;;13.35;72.57;98818.89;102956;1296;98433;-76
2022/10/25 03:01:23;;;;;;;;;;;;;;;13.34;72.73;98814.67;103094;1297;98428;-75
2022/10/25 03:03:51;;;;;;;28.20;14.70;;;;;;;13.33;72.83;98814.09;102968;1299;111143;-75
2022/10/25 03:06:19;;;;;;;30.60;15.30;;;;;;;13.34;72.77;98814.31;103048;1297;98443;-78
2022/10/25 03:08:48;;;;;;;29.60;15.50;;;;;;;13.34;72.74;98815.77;103139;1297;106205;-75
2022/10/25 03:11:18;;;;;;;28.50;15.90;;;;;;;13.34;72.79;98821.12;103108;1296;97910;-74
2022/10/25 03:13:45;;;;;;;28.20;15.00;;;;;;;13.34;72.88;98821.37;103098;1296;95861;-75
2022/10/25 03:16:13;;;;;;;27.50;14.40;;;;;;;13.33;72.88;98823.14;103127;1298;111246;-76
2022/10/25 03:18:41;;;;;;;30.00;15.40;;;;;;;13.34;72.94;98825.93;103138;1296;96904;-75
2022/10/25 03:21:08;;;;;;;30.10;15.50;;;;;;;13.35;72.94;98829.64;103029;1304;107465;-74
2022/10/25 03:23:36;;;;;;;32.30;14.80;;;;;;;13.34;72.98;98836.27;103063;1303;96931;-75
2022/10/25 03:26:06;;;;;;;29.20;15.00;;;;;;;13.34;73.01;98833.99;103048;1304;97770;-78
2022/10/25 03:28:34;;;;;;;32.00;15.40;;;;;;;13.33;73.08;98835.84;103068;1298;111182;-78
2022/10/25 03:31:01;;;;;;;30.40;15.90;;;;;;;13.31;73.06;98838.98;103078;1304;97014;-78
2022/10/25 03:33:29;;;;;;;29.90;14.70;;;;;;;13.31;73.01;98836.20;102992;1304;107333;-76
2022/10/25 03:36:02;;;;;;;29.20;15.20;;;;;;;13.29;73.04;98842.91;103037;1290;98428;-77
2022/10/25 03:38:30;;;;;;;28.70;15.60;;;;;;;13.28;73.08;98842.31;103065;1297;97999;-77
2022/10/25 03:40:58;;;;;;;31.30;15.10;;;;;;;13.27;73.25;98842.93;103027;1298;110437;-77
2022/10/25 03:43:26;;;;;;;30.10;15.80;;;;;;;13.27;73.27;98835.83;103034;1300;98397;-79
2022/10/25 03:45:54;;;;;;;26.60;15.00;;;;;;;13.26;73.37;98833.90;102987;1296;107396;-78
2022/10/25 03:48:21;;;;;;;28.20;14.30;;;;;;;13.26;73.57;98829.36;103003;1300;97617;-77
2022/10/25 03:50:53;;;;;;;28.30;15.00;;;;;;;13.26;73.55;98828.09;103051;1296;97951;-77
2022/10/25 03:53:21;;;;;;;26.00;15.20;;;;;;;13.27;73.51;98826.73;103075;1297;110975;-77
2022/10/25 03:55:49;;;;;;;25.10;13.20;;;;;;;13.27;73.99;98825.86;103077;1303;98274;-78
2022/10/25 03:58:18;;;;;;;24.00;13.60;;;;;;;13.25;73.90;98822.60;103110;1302;107565;-79
2022/10/25 04:00:47;;;;;;;24.20;13.90;;;;;;;13.24;73.87;98823.59;103178;1296;97960;-76
2022/10/25 04:03:17;;;;;;;24.20;13.30;;;;;;;13.24;73.78;98823.77;103092;1297;97851;-75
2022/10/25 04:05:45;;;;;;;24.10;13.50;;;;;;;13.25;73.97;98823.52;103064;1296;110704;-77
2022/10/25 04:08:13;;;;;;;24.00;12.70;;;;;;;13.24;73.88;98825.86;103028;1305;97694;-78
2022/10/25 04:10:41;;;;;;;22.70;12.80;;;;;;;13.24;73.94;98825.19;103038;1303;107222;-78
2022/10/25 04:13:08;;;;;;;24.50;13.30;;;;;;;13.23;74.14;98824.02;102991;1298;98077;-76
2022/10/25 04:15:38;;;;;;;25.30;13.40;;;;;;;13.22;74.21;98821.11;103057;1303;97954;-76
2022/10/25 04:18:06;;;;;;;24.00;12.50;;;;;;;13.22;74.29;98819.73;103036;1296;111639;-78
2022/10/25 04:20:34;;;;;;;24.20;12.30;;;;;;;13.21;74.09;98824.96;103151;1302;97874;-78
2022/10/25 04:23:01;;;;;;;24.50;12.60;;;;;;;13.21;74.08;98824.95;103058;1288;107485;-77
2022/10/25 04:25:29;;;;;;;25.60;13.00;;;;;;;13.21;74.10;98828.16;103110;1304;97994;-77
2022/10/25 04:27:59;;;;;;;22.10;11.80;;;;;;;13.21;74.23;98832.61;103060;1290;97909;-78
2022/10/25 04:30:27;;;;;;;24.80;12.10;;;;;;;13.19;74.53;98830.79;103018;1297;110994;-78
2022/10/25 04:32:57;;;;;;;23.50;12.50;;;;;;;13.17;74.74;98830.05;103183;1296;97992;-78
2022/10/25 04:35:25;;;;;;;22.70;12.30;;;;;;;13.16;74.45;98829.46;103054;1296;107127;-77
2022/10/25 04:37:57;;;;;;;24.80;13.50;;;;;;;13.17;74.49;98831.55;103032;1304;97978;-79
2022/10/25 04:40:27;;;;;;;27.60;13.50;;;;;;;13.17;74.44;98831.71;103109;1304;95324;-80
2022/10/25 04:42:55;;;;;;;24.40;12.80;;;;;;;13.17;74.45;98833.99;103124;1296;110797;-81
2022/10/25 04:45:23;;;;;;;25.00;12.70;;;;;;;13.17;74.68;98830.42;102990;1306;233242;-81
2022/10/25 04:47:51;;;;;;;22.90;12.30;;;;;;;13.15;74.78;98831.17;103083;1290;107083;-81
2022/10/25 04:50:21;;;;;;;24.60;11.80;;;;;;;13.13;74.74;98833.16;103084;1296;97961;-81
2022/10/25 04:52:48;;;;;;;20.40;10.50;;;;;;;13.11;75.17;98843.44;103141;1298;98006;-81
2022/10/25 04:55:18;;;;;;;24.20;12.20;;;;;;;13.09;74.81;98846.77;103080;1297;110827;-80
2022/10/25 04:57:46;;;;;;;24.40;11.70;;;;;;;13.10;74.66;98849.21;103111;1296;97862;-79
2022/10/25 05:00:14;;;;;;;22.20;10.20;;;;;;;13.10;74.73;98848.34;103070;1297;107208;-80
2022/10/25 05:02:42;;;;;;;20.20;9.70;;;;;;;13.08;74.67;98848.79;103015;1297;97914;-79
2022/10/25 05:05:12;;;;;;;20.90;9.60;;;;;;;13.07;75.15;98848.17;103099;1298;95918;-82
2022/10/25 05:07:41;;;;;;;19.70;10.10;;;;;;;13.07;74.78;98852.84;102916;1296;111276;-80
2022/10/25 05:10:09;;;;;;;22.00;9.80;;;;;;;13.08;74.92;98852.89;103115;1298;95826;-81
2022/10/25 05:12:39;;;;;;;19.70;9.80;;;;;;;13.08;75.01;98853.80;103076;1297;107267;-80
2022/10/25 05:15:08;;;;;;;21.70;9.80;;;;;;;13.07;74.89;98856.20;102941;1299;96216;-80
2022/10/25 05:17:37;;;;;;;20.30;9.70;;;;;;;13.08;74.92;98855.63;103118;1289;97989;-79
2022/10/25 05:20:07;;;;;;;20.60;10.00;;;;;;;13.07;74.96;98857.60;102925;1304;111141;-80
2022/10/25 05:22:35;;;;;;;21.50;10.20;;;;;;;13.08;74.91;98858.63;102995;1296;98182;-79
2022/10/25 05:25:03;;;;;;;20.70;9.70;;;;;;;13.07;74.94;98857.44;102976;1296;106076;-79
2022/10/25 05:27:38;;;;;;;19.90;9.10;;;;;;;13.08;75.07;98857.02;102987;1304;97906;-79
2022/10/25 05:30:06;;;;;;;20.60;9.50;;;;;;;13.07;75.07;98853.89;102947;1304;97950;-80
2022/10/25 05:32:36;;;;;;;20.20;8.90;;;;;;;13.06;75.10;98852.88;102882;1301;111216;-80
2022/10/25 05:35:08;;;;;;;19.80;9.10;;;;;;;13.06;75.03;98852.93;103237;1303;97894;-79
2022/10/25 05:37:36;;;;;;;19.20;8.70;;;;;;;13.05;75.07;98858.16;102964;1304;107436;-79
2022/10/25 05:40:06;;;;;;;21.20;9.70;;;;;;;13.06;75.32;98859.53;103108;1303;97863;-80
2022/10/25 05:42:34;;;;;;;21.90;9.30;;;;;;;13.06;75.12;98859.19;103174;1296;96316;-80
2022/10/25 05:45:02;;;;;;;22.00;9.70;;;;;;;13.06;75.26;98858.13;103149;1304;110774;-80
2022/10/25 05:47:30;;;;;;;19.80;9.70;;;;;;;13.05;75.24;98863.16;103084;1299;98827;-79
2022/10/25 05:49:58;;;;;;;18.80;9.00;;;;;;;13.06;75.21;98870.76;102926;1296;107194;-81
2022/10/25 05:52:28;;;;;;;20.90;9.40;;;;;;;13.06;75.28;98878.20;103175;1298;97952;-79
2022/10/25 05:54:56;;;;;;;27.30;10.10;;;;;;;13.06;75.31;98884.99;103149;1305;98637;-77
2022/10/25 05:57:24;;;;;;;22.80;10.10;;;;;;;13.06;75.28;98892.61;103143;1296;110746;-79
2022/10/25 05:59:51;;;;;;;18.60;9.00;;;;;;;13.06;75.27;98892.64;103141;1299;97936;-80
2022/10/25 06:02:19;;;;;;;23.30;10.00;;;;;;;13.05;75.35;98896.45;103174;1295;106265;-80
2022/10/25 06:04:49;;;;;;;20.70;9.10;;;;;;;13.05;75.41;98900.54;103101;1299;97894;-81
2022/10/25 06:07:21;;;;;;;21.00;9.30;;;;;;;13.06;75.38;98910.08;103086;1302;97909;-80
2022/10/25 06:09:48;;;;;;;17.90;8.70;;;;;;;13.06;75.48;98920.34;103069;1299;110923;-80
2022/10/25 06:12:16;;;;;;;21.40;9.20;;;;;;;13.07;75.65;98919.63;103137;1296;98446;-81
2022/10/25 06:14:44;;;;;;;19.50;9.40;;;;;;;13.07;75.51;98925.31;103115;1297;106593;-80
2022/10/25 06:17:14;;;;;;;22.20;10.90;;;;;;;13.08;75.52;98925.92;103082;1306;97965;-80
2022/10/25 06:19:45;;;;;;;20.20;10.70;;;;;;;13.08;75.62;98925.17;103043;1293;97897;-80
2022/10/25 06:22:12;;;;;;;22.00;11.60;;;;;;;13.09;75.59;98928.34;103097;1299;111097;-82
2022/10/25 06:24:45;;;;;;;22.60;9.90;;;;;;;13.10;75.72;98926.44;103090;1299;95318;-80
2022/10/25 06:27:15;;;;;;;21.50;10.50;;;;;;;13.12;75.85;98923.66;103167;1304;107576;-79
2022/10/25 06:29:43;;;;;;;22.90;11.20;;;;;;;13.13;75.65;98918.44;103103;1297;97964;-81
2022/10/25 06:32:13;;;;;;;23.30;11.10;;;;;;;13.14;75.65;98921.12;103007;1299;97835;-80
2022/10/25 06:34:40;;;;;;;22.30;11.40;;;;;;;13.18;75.74;98927.97;103031;1299;111126;-80
2022/10/25 06:37:08;;;;;;;23.80;12.60;;;;;;;13.20;75.75;98928.46;103129;1306;97884;-78
2022/10/25 06:39:36;;;;;;;21.50;10.70;;;;;;;13.23;75.75;98926.25;103198;1305;107569;-79
2022/10/25 06:42:04;;;;;;;24.70;12.30;;;;;;;13.27;75.80;98924.52;103178;1304;97999;-78
2022/10/25 06:44:31;;;;;;;23.10;11.50;;;;;;;13.30;75.84;98924.37;103253;1296;96599;-79
2022/10/25 06:46:59;;;;;;;26.10;14.00;;;;;;;13.35;75.84;98925.98;103110;1297;109827;-82
2022/10/25 06:49:46;;;;;;;25.00;13.90;;;;;;;13.38;76.00;98927.09;103149;1297;97850;-81
2022/10/25 06:52:14;;;;;;;25.60;13.80;;;;;;;13.42;75.89;98923.63;103087;1290;107404;-80
2022/10/25 06:54:42;;;;;;;26.70;13.50;;;;;;;13.46;75.87;98917.16;103063;1306;95721;-80
2022/10/25 06:57:10;;;;;;;28.20;15.30;;;;;;;13.52;75.94;98915.56;103108;1305;95886;-79
2022/10/25 06:59:37;;;;;;;29.70;15.60;;;;;;;13.58;75.94;98911.55;103058;1304;111151;-79
2022/10/25 07:02:05;;;;;;;28.70;15.80;;;;;;;13.64;75.98;98905.98;103035;1297;98027;-79
2022/10/25 07:04:35;;;;;;;32.70;17.40;;;;;;;13.73;75.97;98911.98;103037;1302;106652;-80
2022/10/25 07:07:03;;;;;;;30.70;17.40;;;;;;;13.78;76.02;98910.46;103076;1305;95139;-79
2022/10/25 07:09:31;;;;;;;31.90;17.80;;;;;;;13.81;75.94;98905.80;103104;1307;98543;-80
2022/10/25 07:11:59;;;;;;;28.70;16.80;;;;;;;13.84;76.03;98903.70;103058;1299;110723;-80
2022/10/25 07:14:26;;;;;;;30.60;16.10;;;;;;;13.90;76.02;98904.40;103096;1304;96333;-80
2022/10/25 07:16:54;;;;;;;27.00;15.40;;;;;;;14.00;76.16;98905.52;102924;1304;107296;-80
2022/10/25 07:19:23;;;;;;;30.80;15.90;;;;;;;14.09;76.09;98904.02;103045;1304;97876;-79
2022/10/25 07:21:53;;;;;;;26.30;15.00;;;;;;;14.17;76.08;98906.73;103120;1296;97963;-80
2022/10/25 07:24:23;;;;;;;24.90;13.20;;;;;;;14.27;76.02;98904.58;103082;1296;111363;-81
2022/10/25 07:26:50;;;;;;;24.20;12.50;;;;;;;14.38;76.13;98909.60;103083;1298;95773;-80
2022/10/25 07:29:21;;;;;;;23.80;12.00;;;;;;;14.49;76.12;98914.30;103096;1298;106484;-80
2022/10/25 07:31:49;;;;;;;22.40;10.70;;;;;;;14.58;76.13;98917.60;103116;1298;97893;-82
2022/10/25 07:34:17;;;;;;;23.80;11.70;;;;;;;14.67;76.11;98924.08;103096;1299;97921;-81
2022/10/25 07:36:47;;;;;;;24.10;11.90;;;;;;;14.73;76.08;98925.14;102921;1301;113015;-80
2022/10/25 07:39:14;;;;;;;23.90;11.10;;;;;;;14.82;76.01;98933.30;103095;1305;97899;-80
2022/10/25 07:41:42;;;;;;;22.80;11.80;;;;;;;14.85;75.97;98937.63;103152;1304;107631;-79
2022/10/25 07:44:10;;;;;;;23.40;11.40;;;;;;;14.87;75.98;98945.15;103159;1303;98315;-79
2022/10/25 07:46:43;;;;;;;22.90;11.60;;;;;;;14.90;76.16;98957.41;103183;1297;96195;-81
2022/10/25 07:49:13;;;;;;;20.50;9.30;;;;;;;14.90;76.15;98965.75;103156;1296;112665;-79
2022/10/25 07:51:41;;;;;;;19.60;8.30;;;;;;;14.91;76.18;98972.09;103208;1296;98384;-80
2022/10/25 07:54:09;;;;;;;16.10;7.00;;;;;;;14.91;76.05;98981.03;103097;1300;107141;-79
2022/10/25 07:56:37;;;;;;;13.80;5.90;;;;;;;14.89;75.99;98980.52;103057;1296;97940;-79
2022/10/25 07:59:04;;;;;;;11.50;5.10;;;;;;;14.86;76.03;98974.19;103042;1304;97785;-79
2022/10/25 08:01:32;;;;;;;12.80;4.70;;;;;;;14.82;76.06;98963.06;103066;1298;110861;-79
2022/10/25 08:04:02;;;;;;;9.90;4.20;;;;;;;14.83;76.01;98957.14;103075;1298;98000;-79
2022/10/25 08:06:30;;;;;;;10.90;4.90;;;;;;;14.84;76.13;98957.36;103060;1300;106727;-79
2022/10/25 08:08:58;;;;;;;11.90;4.40;;;;;;;14.87;76.00;98957.06;103098;1296;95184;-79
2022/10/25 08:11:43;;;;;;;7.70;3.70;;;;;;;14.92;76.07;98960.59;103133;1297;97947;-79
2022/10/25 08:14:15;;;;;;;13.20;3.70;;;;;;;14.94;76.14;98946.87;103099;1300;111107;-78
2022/10/25 08:16:43;;;;;;;9.50;4.30;;;;;;;14.99;76.13;98931.89;102946;1299;97889;-78
2022/10/25 08:19:10;;;;;;;8.90;3.50;;;;;;;15.01;76.13;98925.77;103111;1305;107501;-79
2022/10/25 08:21:38;;;;;;;8.70;3.90;;;;;;;15.05;76.09;98921.91;103108;1305;96557;-79
2022/10/25 08:24:06;;;;;;;12.80;4.20;;;;;;;15.07;76.10;98926.73;103081;1307;97776;-79
2022/10/25 08:26:36;;;;;;;12.60;4.60;;;;;;;15.07;76.12;98928.70;103106;1299;111137;-79
2022/10/25 08:29:04;;;;;;;13.10;5.00;;;;;;;15.06;75.97;98934.50;103149;1302;97967;-80
2022/10/25 08:31:31;;;;;;;14.20;5.40;;;;;;;15.07;76.12;98926.70;103242;1304;107448;-79
2022/10/25 08:33:59;;;;;;;17.30;6.60;;;;;;;15.08;76.07;98923.75;103136;1305;95371;-78
2022/10/25 08:36:29;;;;;;;15.10;6.80;;;;;;;15.09;76.10;98922.59;103166;1299;97928;-80
2022/10/25 08:38:57;;;;;;;17.90;7.20;;;;;;;15.08;76.10;98926.06;103109;1304;109689;-80
2022/10/25 08:42:03;;;;;;;17.10;7.10;;;;;;;15.10;76.18;98930.73;103083;1304;97996;-79
2022/10/25 08:45:06;;;;;;;19.40;9.00;;;;;;;15.09;76.05;98930.77;102384;1306;107471;-79
2022/10/25 08:47:40;;;;;;;25.70;10.60;;;;;;;15.08;76.13;98929.48;103138;1304;97784;-81
2022/10/25 08:50:19;;;;;;;26.70;13.60;;;;;;;15.09;76.14;98929.72;103205;1303;98452;-80
2022/10/25 08:53:03;;;;;;;28.00;13.90;;;;;;;15.11;76.15;98934.40;103203;1296;111177;-81
2022/10/25 08:55:34;;;;;;;;;;;;;;;15.18;76.18;98936.75;103141;1290;95202;-79
2022/10/25 08:58:33;;;;;;;27.40;14.60;;;;;;;15.33;76.30;98933.20;102937;1300;107169;-82
2022/10/25 09:01:15;;;;;;;30.70;17.20;;;;;;;15.63;76.39;98925.75;103067;1298;97996;-79
2022/10/25 09:03:43;;;;;;;28.30;16.50;;;;;;;15.78;76.10;98921.05;102983;1300;97966;-81
2022/10/25 09:06:36;;;;;;;29.50;17.50;;;;;;;15.92;76.01;98914.57;103082;1301;111505;-80
2022/10/25 09:09:21;;;;;;;30.20;17.00;;;;;;;16.04;75.99;98911.39;103113;1297;99426;-79
2022/10/25 09:12:10;;;;;;;27.80;15.50;;;;;;;16.21;76.23;98906.37;103127;1304;107521;-79
2022/10/25 09:14:57;;;;;;;28.00;15.40;;;;;;;16.49;76.03;98906.30;103045;1296;99248;-78
2022/10/25 09:17:50;;;;;;;30.00;16.30;;;;;;;16.64;75.77;98899.08;103077;1304;99319;-79
2022/10/25 09:20:37;;;;;;;29.50;15.90;;;;;;;16.71;75.64;98910.20;103080;1299;112775;-78
2022/10/25 09:23:27;;;;;;;27.90;17.00;;;;;;;16.73;75.61;98915.19;102992;1307;99256;-79
2022/10/25 09:26:11;;;;;;;29.90;17.10;;;;;;;16.66;75.61;98918.60;103057;1296;107219;-78
2022/10/25 09:29:01;;;;;;;28.80;15.70;;;;;;;16.63;75.72;98926.79;102943;1300;97630;-79
2022/10/25 09:31:38;;;;;;;27.10;16.60;;;;;;;16.67;75.65;98936.02;103082;1305;99329;-80
2022/10/25 09:34:10;;;;;;;29.50;18.10;;;;;;;16.71;75.65;98934.20;103097;1296;112492;-79
2022/10/25 09:36:49;;;;;;;24.70;15.60;;;;;;;16.80;75.68;98932.57;103140;1303;99060;-79
2022/10/25 09:39:38;;;;;;;29.40;16.90;;;;;;;16.85;75.47;98933.87;103134;1297;107609;-80
2022/10/25 09:42:16;;;;;;;25.40;15.50;;;;;;;16.82;74.96;98936.13;103140;1304;99777;-79
2022/10/25 09:45:17;;;;;;;25.00;14.90;;;;;;;16.84;74.90;98931.64;103108;1305;99468;-78
2022/10/25 09:48:06;;;;;;;23.10;14.10;;;;;;;16.98;75.23;98932.98;103044;1304;110617;-79
2022/10/25 09:50:52;;;;;;;27.20;14.40;;;;;;;17.13;75.22;98929.86;103110;1299;99287;-79
2022/10/25 09:53:20;;;;;;;29.70;14.60;;;;;;;17.21;75.21;98927.73;103046;1304;107245;-79
2022/10/25 09:55:57;;;;;;;25.90;14.00;;;;;;;17.35;75.38;98926.74;103036;1298;99226;-78
2022/10/25 09:58:29;;;;;;;25.30;13.40;;;;;;;17.47;75.54;98926.69;103120;1305;97934;-80
2022/10/25 10:01:30;;;;;;;22.00;11.70;;;;;;;17.56;74.73;98932.06;103123;1303;112616;-79
2022/10/25 10:04:25;;;;;;;22.50;11.10;;;;;;;17.44;74.02;98931.91;103147;1304;99262;-78
2022/10/25 10:07:03;;;;;;;23.30;10.90;;;;;;;17.27;74.44;98935.27;103153;1296;107569;-79
2022/10/25 10:09:31;;;;;;;26.00;10.90;;;;;;;17.20;74.55;98936.70;103132;1304;99150;-80
2022/10/25 10:12:06;;;;;;;20.70;9.70;;;;;;;17.17;74.44;98936.40;103135;1308;99414;-80
2022/10/25 10:14:41;;;;;;;19.70;10.00;;;;;;;17.11;74.55;98931.81;103092;1300;112400;-79
2022/10/25 10:17:16;;;;;;;24.10;11.10;;;;;;;17.05;74.47;98937.61;103130;1306;99352;-79
2022/10/25 10:20:10;;;;;;;24.50;12.40;;;;;;;16.92;74.08;98941.98;103106;1299;107469;-77
2022/10/25 10:22:55;;;;;;;23.00;12.30;;;;;;;16.73;74.39;98944.92;103049;1288;96923;-78
2022/10/25 10:25:27;;;;;;;19.80;10.80;;;;;;;16.58;74.42;98944.61;103121;1297;99305;-78
2022/10/25 10:27:58;;;;;;;22.80;11.10;;;;;;;16.48;74.18;98942.06;103125;1300;112526;-78
2022/10/25 10:30:36;;;;;;;23.40;11.20;;;;;;;16.44;74.50;98943.48;103184;1300;98733;-78
2022/10/25 10:33:15;;;;;;;23.40;11.60;;;;;;;16.45;74.55;98943.61;103127;1304;107471;-78
2022/10/25 10:35:42;;;;;;;22.10;10.80;;;;;;;16.47;74.66;98941.39;103018;1303;98013;-79
2022/10/25 10:38:19;;;;;;;22.50;10.40;;;;;;;16.53;74.49;98947.23;103118;1304;99329;-79
2022/10/25 10:40:50;;;;;;;21.50;11.10;;;;;;;16.54;74.22;98948.79;103145;1299;112473;-79
2022/10/25 10:43:33;;;;;;;23.50;10.80;;;;;;;16.51;74.38;98954.04;103140;1305;98990;-77
2022/10/25 10:46:15;;;;;;;20.20;9.80;;;;;;;16.49;74.22;98949.60;103135;1307;106198;-80
2022/10/25 10:48:46;;;;;;;23.80;11.30;;;;;;;16.48;74.26;98942.71;103097;1304;99292;-78
2022/10/25 10:51:20;;;;;;;18.70;9.40;;;;;;;16.52;74.30;98935.19;103186;1296;97926;-78
2022/10/25 10:54:17;;;;;;;19.90;9.60;;;;;;;16.60;74.32;98933.30;103113;1304;112355;-79
2022/10/25 10:56:52;;;;;;;21.60;9.40;;;;;;;16.70;74.34;98927.84;103083;1303;99270;-78
2022/10/25 10:59:30;;;;;;;21.70;9.80;;;;;;;16.81;74.39;98924.63;103042;1298;107225;-77
2022/10/25 11:02:23;;;;;;;26.00;11.20;;;;;;;16.91;74.25;98927.02;103065;1303;99215;-78
2022/10/25 11:04:57;;;;;;;18.90;9.00;;;;;;;17.02;74.12;98927.08;103123;1297;99289;-75
2022/10/25 11:07:29;;;;;;;20.00;9.20;;;;;;;17.12;74.07;98925.30;103113;1303;112102;-77
2022/10/25 11:10:30;;;;;;;23.00;9.20;;;;;;;17.22;74.13;98922.67;103103;1298;96495;-79
2022/10/25 11:13:14;;;;;;;20.50;8.50;;;;;;;17.34;73.96;98922.36;103089;1303;107123;-80
2022/10/25 11:15:50;;;;;;;18.80;9.10;;;;;;;17.41;74.03;98922.11;103011;1293;99258;-79
2022/10/25 11:18:48;;;;;;;19.30;8.90;;;;;;;17.45;73.91;98924.09;103142;1304;99323;-81
2022/10/25 11:21:58;;;;;;;19.80;9.20;;;;;;;17.48;73.44;98929.64;103023;1297;112121;-80
2022/10/25 11:24:55;;;;;;;19.50;9.10;;;;;;;17.39;73.60;98929.15;103099;1297;96489;-78
2022/10/25 11:27:50;;;;;;;22.30;8.20;;;;;;;17.34;73.16;98930.80;103061;1304;107246;-78
2022/10/25 11:30:27;;;;;;;19.70;8.30;;;;;;;17.26;73.34;98930.80;103088;1296;99258;-77
2022/10/25 11:33:21;;;;;;;17.60;8.50;;;;;;;17.25;73.17;98934.21;103085;1303;99250;-78
2022/10/25 11:36:21;;;;;;;16.70;7.90;;;;;;;17.16;73.18;98932.58;103088;1306;112536;-78
2022/10/25 11:39:13;;;;;;;18.40;7.30;;;;;;;17.11;72.98;98928.25;102899;1292;99371;-77
2022/10/25 11:41:54;;;;;;;17.90;6.90;;;;;;;17.12;73.05;98929.60;103105;1303;107351;-79